sensor_id;sensor_type;location;lat;lon;timestamp;P1;durP1;ratioP1;P2;durP2;ratioP2
3563;SDS011;1796;52.388;13.096;2022-09-21T00:01:55;9.20;;;5.10;;
3563;SDS011;1796;52.388;13.096;2022-09-21T00:04:22;8.53;;;5.83;;
3563;SDS011;1796;52.388;13.096;2022-09-21T00:06:49;5.13;;;4.63;;
3563;SDS011;1796;52.388;13.096;2022-09-21T00:09:16;6.00;;;5.43;;
3563;SDS011;1796;52.388;13.096;2022-09-21T00:11:43;6.13;;;5.00;;
3563;SDS011;1796;52.388;13.096;2022-09-21T00:14:12;5.70;;;4.97;;
3563;SDS011;1796;52.388;13.096;2022-09-21T00:16:39;5.43;;;4.17;;
3563;SDS011;1796;52.388;13.096;2022-09-21T00:19:06;4.67;;;4.37;;
3563;SDS011;1796;52.388;13.096;2022-09-21T00:21:34;7.77;;;4.73;;
3563;SDS011;1796;52.388;13.096;2022-09-21T00:24:02;11.43;;;4.73;;
3563;SDS011;1796;52.388;13.096;2022-09-21T00:26:29;4.90;;;4.40;;
3563;SDS011;1796;52.388;13.096;2022-09-21T00:28:58;7.43;;;5.00;;
3563;SDS011;1796;52.388;13.096;2022-09-21T00:31:27;5.80;;;4.90;;
3563;SDS011;1796;52.388;13.096;2022-09-21T00:33:55;6.10;;;4.87;;
3563;SDS011;1796;52.388;13.096;2022-09-21T00:36:24;10.50;;;5.20;;
3563;SDS011;1796;52.388;13.096;2022-09-21T00:38:52;5.70;;;4.20;;
3563;SDS011;1796;52.388;13.096;2022-09-21T00:41:21;8.73;;;4.50;;
3563;SDS011;1796;52.388;13.096;2022-09-21T00:44:17;6.30;;;5.10;;
3563;SDS011;1796;52.388;13.096;2022-09-21T00:47:08;5.17;;;4.67;;
3563;SDS011;1796;52.388;13.096;2022-09-21T00:49:38;4.10;;;3.80;;
3563;SDS011;1796;52.388;13.096;2022-09-21T00:52:07;11.23;;;4.73;;
3563;SDS011;1796;52.388;13.096;2022-09-21T00:54:40;6.53;;;4.50;;
3563;SDS011;1796;52.388;13.096;2022-09-21T00:57:09;7.57;;;4.73;;
3563;SDS011;1796;52.388;13.096;2022-09-21T00:59:37;4.97;;;4.37;;
3563;SDS011;1796;52.388;13.096;2022-09-21T01:02:05;5.40;;;4.47;;
3563;SDS011;1796;52.388;13.096;2022-09-21T01:04:33;5.87;;;4.07;;
3563;SDS011;1796;52.388;13.096;2022-09-21T01:07:01;4.97;;;4.47;;
3563;SDS011;1796;52.388;13.096;2022-09-21T01:09:31;7.50;;;4.20;;
3563;SDS011;1796;52.388;13.096;2022-09-21T01:12:02;4.50;;;3.97;;
3563;SDS011;1796;52.388;13.096;2022-09-21T01:14:43;4.57;;;4.03;;
3563;SDS011;1796;52.388;13.096;2022-09-21T01:17:35;6.30;;;4.40;;
3563;SDS011;1796;52.388;13.096;2022-09-21T01:23:09;10.90;;;3.90;;
3563;SDS011;1796;52.388;13.096;2022-09-21T01:25:52;5.10;;;4.33;;
3563;SDS011;1796;52.388;13.096;2022-09-21T01:28:33;6.50;;;3.97;;
3563;SDS011;1796;52.388;13.096;2022-09-21T01:31:32;5.40;;;3.23;;
3563;SDS011;1796;52.388;13.096;2022-09-21T01:34:04;6.97;;;4.03;;
3563;SDS011;1796;52.388;13.096;2022-09-21T01:36:34;10.90;;;4.10;;
3563;SDS011;1796;52.388;13.096;2022-09-21T01:39:05;5.87;;;4.23;;
3563;SDS011;1796;52.388;13.096;2022-09-21T01:41:35;7.67;;;4.43;;
3563;SDS011;1796;52.388;13.096;2022-09-21T01:44:06;4.70;;;4.23;;
3563;SDS011;1796;52.388;13.096;2022-09-21T01:46:37;5.57;;;3.90;;
3563;SDS011;1796;52.388;13.096;2022-09-21T01:49:05;7.17;;;4.23;;
3563;SDS011;1796;52.388;13.096;2022-09-21T01:51:37;4.97;;;4.20;;
3563;SDS011;1796;52.388;13.096;2022-09-21T01:54:09;6.27;;;4.60;;
3563;SDS011;1796;52.388;13.096;2022-09-21T01:56:39;10.90;;;3.83;;
3563;SDS011;1796;52.388;13.096;2022-09-21T01:59:12;3.90;;;3.60;;
3563;SDS011;1796;52.388;13.096;2022-09-21T02:01:44;5.20;;;3.90;;
3563;SDS011;1796;52.388;13.096;2022-09-21T02:04:15;4.57;;;4.10;;
3563;SDS011;1796;52.388;13.096;2022-09-21T02:06:43;8.90;;;4.10;;
3563;SDS011;1796;52.388;13.096;2022-09-21T02:09:12;5.90;;;4.17;;
3563;SDS011;1796;52.388;13.096;2022-09-21T02:11:40;4.73;;;4.30;;
3563;SDS011;1796;52.388;13.096;2022-09-21T02:14:08;6.43;;;3.73;;
3563;SDS011;1796;52.388;13.096;2022-09-21T02:16:38;6.33;;;4.37;;
3563;SDS011;1796;52.388;13.096;2022-09-21T02:19:11;4.40;;;4.00;;
3563;SDS011;1796;52.388;13.096;2022-09-21T02:21:50;5.07;;;4.00;;
3563;SDS011;1796;52.388;13.096;2022-09-21T02:24:25;8.13;;;4.20;;
3563;SDS011;1796;52.388;13.096;2022-09-21T02:27:01;4.33;;;4.00;;
3563;SDS011;1796;52.388;13.096;2022-09-21T02:29:32;6.57;;;4.70;;
3563;SDS011;1796;52.388;13.096;2022-09-21T02:32:08;5.77;;;4.40;;
3563;SDS011;1796;52.388;13.096;2022-09-21T02:34:39;6.53;;;3.80;;
3563;SDS011;1796;52.388;13.096;2022-09-21T02:37:14;4.73;;;4.23;;
3563;SDS011;1796;52.388;13.096;2022-09-21T02:39:47;9.30;;;4.20;;
3563;SDS011;1796;52.388;13.096;2022-09-21T02:42:21;7.50;;;4.27;;
3563;SDS011;1796;52.388;13.096;2022-09-21T02:44:53;11.83;;;4.30;;
3563;SDS011;1796;52.388;13.096;2022-09-21T02:47:27;19.13;;;5.03;;
3563;SDS011;1796;52.388;13.096;2022-09-21T02:50:00;4.30;;;3.80;;
3563;SDS011;1796;52.388;13.096;2022-09-21T02:52:29;6.07;;;4.73;;
3563;SDS011;1796;52.388;13.096;2022-09-21T02:54:59;3.90;;;3.70;;
3563;SDS011;1796;52.388;13.096;2022-09-21T02:57:28;5.20;;;4.20;;
3563;SDS011;1796;52.388;13.096;2022-09-21T02:59:55;12.30;;;3.73;;
3563;SDS011;1796;52.388;13.096;2022-09-21T03:02:22;5.20;;;4.03;;
3563;SDS011;1796;52.388;13.096;2022-09-21T03:04:50;4.10;;;3.80;;
3563;SDS011;1796;52.388;13.096;2022-09-21T03:07:18;4.40;;;3.97;;
3563;SDS011;1796;52.388;13.096;2022-09-21T03:09:45;5.43;;;4.37;;
3563;SDS011;1796;52.388;13.096;2022-09-21T03:12:11;8.90;;;3.70;;
3563;SDS011;1796;52.388;13.096;2022-09-21T03:14:38;7.37;;;4.23;;
3563;SDS011;1796;52.388;13.096;2022-09-21T03:17:05;6.13;;;4.43;;
3563;SDS011;1796;52.388;13.096;2022-09-21T03:19:33;4.47;;;4.03;;
3563;SDS011;1796;52.388;13.096;2022-09-21T03:22:01;9.40;;;3.77;;
3563;SDS011;1796;52.388;13.096;2022-09-21T03:24:28;4.13;;;3.73;;
3563;SDS011;1796;52.388;13.096;2022-09-21T03:27:10;10.93;;;4.30;;
3563;SDS011;1796;52.388;13.096;2022-09-21T03:29:38;6.37;;;4.27;;
3563;SDS011;1796;52.388;13.096;2022-09-21T03:32:05;4.70;;;4.20;;
3563;SDS011;1796;52.388;13.096;2022-09-21T03:34:32;4.00;;;3.60;;
3563;SDS011;1796;52.388;13.096;2022-09-21T03:37:01;7.27;;;3.87;;
3563;SDS011;1796;52.388;13.096;2022-09-21T03:39:30;4.90;;;4.17;;
3563;SDS011;1796;52.388;13.096;2022-09-21T03:41:57;4.60;;;4.30;;
3563;SDS011;1796;52.388;13.096;2022-09-21T03:44:24;13.70;;;4.60;;
3563;SDS011;1796;52.388;13.096;2022-09-21T03:46:52;5.87;;;4.30;;
3563;SDS011;1796;52.388;13.096;2022-09-21T03:49:19;4.47;;;4.07;;
3563;SDS011;1796;52.388;13.096;2022-09-21T03:51:46;6.53;;;4.27;;
3563;SDS011;1796;52.388;13.096;2022-09-21T03:54:14;4.93;;;3.40;;
3563;SDS011;1796;52.388;13.096;2022-09-21T03:56:41;4.63;;;4.20;;
3563;SDS011;1796;52.388;13.096;2022-09-21T03:59:08;4.37;;;3.97;;
3563;SDS011;1796;52.388;13.096;2022-09-21T04:01:35;4.67;;;3.50;;
3563;SDS011;1796;52.388;13.096;2022-09-21T04:04:02;8.33;;;4.37;;
3563;SDS011;1796;52.388;13.096;2022-09-21T04:06:29;10.20;;;3.63;;
3563;SDS011;1796;52.388;13.096;2022-09-21T04:08:56;4.03;;;3.43;;
3563;SDS011;1796;52.388;13.096;2022-09-21T04:11:25;5.63;;;3.93;;
3563;SDS011;1796;52.388;13.096;2022-09-21T04:13:52;5.70;;;4.33;;
3563;SDS011;1796;52.388;13.096;2022-09-21T04:16:21;9.43;;;4.50;;
3563;SDS011;1796;52.388;13.096;2022-09-21T04:18:49;6.53;;;4.20;;
3563;SDS011;1796;52.388;13.096;2022-09-21T04:21:16;12.30;;;3.90;;
3563;SDS011;1796;52.388;13.096;2022-09-21T04:23:43;11.30;;;4.57;;
3563;SDS011;1796;52.388;13.096;2022-09-21T04:26:21;5.03;;;4.50;;
3563;SDS011;1796;52.388;13.096;2022-09-21T04:28:50;3.93;;;3.63;;
3563;SDS011;1796;52.388;13.096;2022-09-21T04:31:18;3.93;;;3.43;;
3563;SDS011;1796;52.388;13.096;2022-09-21T04:33:46;10.47;;;4.50;;
3563;SDS011;1796;52.388;13.096;2022-09-21T04:36:14;5.13;;;3.40;;
3563;SDS011;1796;52.388;13.096;2022-09-21T04:38:41;9.23;;;3.87;;
3563;SDS011;1796;52.388;13.096;2022-09-21T04:41:08;7.10;;;4.50;;
3563;SDS011;1796;52.388;13.096;2022-09-21T04:43:36;7.03;;;4.20;;
3563;SDS011;1796;52.388;13.096;2022-09-21T04:46:05;7.00;;;4.00;;
3563;SDS011;1796;52.388;13.096;2022-09-21T04:48:32;4.67;;;3.33;;
3563;SDS011;1796;52.388;13.096;2022-09-21T04:50:59;14.40;;;3.97;;
3563;SDS011;1796;52.388;13.096;2022-09-21T04:53:26;8.37;;;3.93;;
3563;SDS011;1796;52.388;13.096;2022-09-21T04:55:53;7.23;;;4.00;;
3563;SDS011;1796;52.388;13.096;2022-09-21T04:58:21;7.17;;;3.83;;
3563;SDS011;1796;52.388;13.096;2022-09-21T05:00:48;4.43;;;4.03;;
3563;SDS011;1796;52.388;13.096;2022-09-21T05:03:17;18.00;;;6.33;;
3563;SDS011;1796;52.388;13.096;2022-09-21T05:05:47;6.20;;;3.87;;
3563;SDS011;1796;52.388;13.096;2022-09-21T05:08:15;6.60;;;4.00;;
3563;SDS011;1796;52.388;13.096;2022-09-21T05:11:03;4.97;;;4.57;;
3563;SDS011;1796;52.388;13.096;2022-09-21T05:13:29;8.20;;;4.30;;
3563;SDS011;1796;52.388;13.096;2022-09-21T05:15:56;6.30;;;4.27;;
3563;SDS011;1796;52.388;13.096;2022-09-21T05:18:24;11.83;;;5.83;;
3563;SDS011;1796;52.388;13.096;2022-09-21T05:20:52;16.37;;;5.30;;
3563;SDS011;1796;52.388;13.096;2022-09-21T05:23:19;15.20;;;7.00;;
3563;SDS011;1796;52.388;13.096;2022-09-21T05:25:47;14.87;;;6.37;;
3563;SDS011;1796;52.388;13.096;2022-09-21T05:28:14;29.80;;;9.53;;
3563;SDS011;1796;52.388;13.096;2022-09-21T05:30:41;29.53;;;8.20;;
3563;SDS011;1796;52.388;13.096;2022-09-21T05:33:09;15.10;;;7.67;;
3563;SDS011;1796;52.388;13.096;2022-09-21T05:35:44;12.50;;;6.33;;
3563;SDS011;1796;52.388;13.096;2022-09-21T05:38:24;16.77;;;6.40;;
3563;SDS011;1796;52.388;13.096;2022-09-21T05:40:51;10.27;;;5.67;;
3563;SDS011;1796;52.388;13.096;2022-09-21T05:43:18;17.47;;;5.87;;
3563;SDS011;1796;52.388;13.096;2022-09-21T05:45:46;13.20;;;6.23;;
3563;SDS011;1796;52.388;13.096;2022-09-21T05:48:18;15.40;;;5.33;;
3563;SDS011;1796;52.388;13.096;2022-09-21T05:50:50;10.00;;;4.97;;
3563;SDS011;1796;52.388;13.096;2022-09-21T05:53:27;10.30;;;4.07;;
3563;SDS011;1796;52.388;13.096;2022-09-21T05:56:11;8.43;;;4.10;;
3563;SDS011;1796;52.388;13.096;2022-09-21T05:58:45;5.07;;;3.00;;
3563;SDS011;1796;52.388;13.096;2022-09-21T06:01:24;6.03;;;2.90;;
3563;SDS011;1796;52.388;13.096;2022-09-21T06:04:00;9.17;;;3.30;;
3563;SDS011;1796;52.388;13.096;2022-09-21T06:06:29;13.50;;;3.40;;
3563;SDS011;1796;52.388;13.096;2022-09-21T06:08:56;9.37;;;2.97;;
3563;SDS011;1796;52.388;13.096;2022-09-21T06:11:23;4.20;;;2.73;;
3563;SDS011;1796;52.388;13.096;2022-09-21T06:13:50;6.10;;;3.00;;
3563;SDS011;1796;52.388;13.096;2022-09-21T06:16:17;6.63;;;2.80;;
3563;SDS011;1796;52.388;13.096;2022-09-21T06:18:44;4.13;;;3.17;;
3563;SDS011;1796;52.388;13.096;2022-09-21T06:21:11;9.63;;;2.10;;
3563;SDS011;1796;52.388;13.096;2022-09-21T06:23:39;2.97;;;2.20;;
3563;SDS011;1796;52.388;13.096;2022-09-21T06:26:06;4.30;;;2.67;;
3563;SDS011;1796;52.388;13.096;2022-09-21T06:28:32;8.57;;;2.60;;
3563;SDS011;1796;52.388;13.096;2022-09-21T06:30:59;3.27;;;2.40;;
3563;SDS011;1796;52.388;13.096;2022-09-21T06:33:26;7.80;;;2.97;;
3563;SDS011;1796;52.388;13.096;2022-09-21T06:35:54;3.00;;;2.70;;
3563;SDS011;1796;52.388;13.096;2022-09-21T06:38:23;4.33;;;2.90;;
3563;SDS011;1796;52.388;13.096;2022-09-21T06:40:52;4.80;;;3.00;;
3563;SDS011;1796;52.388;13.096;2022-09-21T06:43:19;8.83;;;3.43;;
3563;SDS011;1796;52.388;13.096;2022-09-21T06:45:51;3.43;;;2.90;;
3563;SDS011;1796;52.388;13.096;2022-09-21T06:48:19;3.63;;;2.83;;
3563;SDS011;1796;52.388;13.096;2022-09-21T06:50:46;10.03;;;2.70;;
3563;SDS011;1796;52.388;13.096;2022-09-21T06:53:13;4.40;;;3.50;;
3563;SDS011;1796;52.388;13.096;2022-09-21T06:55:40;3.07;;;2.73;;
3563;SDS011;1796;52.388;13.096;2022-09-21T06:58:08;7.13;;;3.60;;
3563;SDS011;1796;52.388;13.096;2022-09-21T07:00:35;5.53;;;3.20;;
3563;SDS011;1796;52.388;13.096;2022-09-21T07:03:02;3.87;;;3.20;;
3563;SDS011;1796;52.388;13.096;2022-09-21T07:05:29;4.60;;;2.90;;
3563;SDS011;1796;52.388;13.096;2022-09-21T07:07:57;5.03;;;2.77;;
3563;SDS011;1796;52.388;13.096;2022-09-21T07:10:24;7.67;;;3.47;;
3563;SDS011;1796;52.388;13.096;2022-09-21T07:12:52;6.00;;;3.57;;
3563;SDS011;1796;52.388;13.096;2022-09-21T07:15:20;6.43;;;3.13;;
3563;SDS011;1796;52.388;13.096;2022-09-21T07:17:47;5.63;;;3.20;;
3563;SDS011;1796;52.388;13.096;2022-09-21T07:20:14;8.83;;;3.10;;
3563;SDS011;1796;52.388;13.096;2022-09-21T07:22:41;7.13;;;3.20;;
3563;SDS011;1796;52.388;13.096;2022-09-21T07:25:08;3.67;;;3.17;;
3563;SDS011;1796;52.388;13.096;2022-09-21T07:27:35;8.30;;;3.60;;
3563;SDS011;1796;52.388;13.096;2022-09-21T07:30:03;13.80;;;4.03;;
3563;SDS011;1796;52.388;13.096;2022-09-21T07:32:32;5.40;;;3.50;;
3563;SDS011;1796;52.388;13.096;2022-09-21T07:34:59;7.03;;;3.70;;
3563;SDS011;1796;52.388;13.096;2022-09-21T07:37:26;9.10;;;3.10;;
3563;SDS011;1796;52.388;13.096;2022-09-21T07:39:53;6.03;;;3.43;;
3563;SDS011;1796;52.388;13.096;2022-09-21T07:42:20;4.70;;;3.80;;
3563;SDS011;1796;52.388;13.096;2022-09-21T07:44:50;9.23;;;4.50;;
3563;SDS011;1796;52.388;13.096;2022-09-21T07:47:17;4.00;;;3.70;;
3563;SDS011;1796;52.388;13.096;2022-09-21T07:49:46;4.30;;;3.10;;
3563;SDS011;1796;52.388;13.096;2022-09-21T07:52:13;4.57;;;3.40;;
3563;SDS011;1796;52.388;13.096;2022-09-21T07:54:40;3.30;;;3.07;;
3563;SDS011;1796;52.388;13.096;2022-09-21T07:57:07;7.73;;;3.67;;
3563;SDS011;1796;52.388;13.096;2022-09-21T07:59:51;5.50;;;3.63;;
3563;SDS011;1796;52.388;13.096;2022-09-21T08:02:20;6.23;;;3.57;;
3563;SDS011;1796;52.388;13.096;2022-09-21T08:04:48;7.60;;;3.60;;
3563;SDS011;1796;52.388;13.096;2022-09-21T08:07:15;6.93;;;3.53;;
3563;SDS011;1796;52.388;13.096;2022-09-21T08:09:43;8.67;;;4.33;;
3563;SDS011;1796;52.388;13.096;2022-09-21T08:12:13;5.83;;;4.00;;
3563;SDS011;1796;52.388;13.096;2022-09-21T08:14:42;4.70;;;3.73;;
3563;SDS011;1796;52.388;13.096;2022-09-21T08:17:09;5.03;;;3.90;;
3563;SDS011;1796;52.388;13.096;2022-09-21T08:19:36;4.33;;;3.70;;
3563;SDS011;1796;52.388;13.096;2022-09-21T08:22:04;7.33;;;4.13;;
3563;SDS011;1796;52.388;13.096;2022-09-21T08:24:31;6.43;;;4.10;;
3563;SDS011;1796;52.388;13.096;2022-09-21T08:27:01;6.10;;;4.63;;
3563;SDS011;1796;52.388;13.096;2022-09-21T08:29:28;12.57;;;4.73;;
3563;SDS011;1796;52.388;13.096;2022-09-21T08:31:55;4.30;;;4.00;;
3563;SDS011;1796;52.388;13.096;2022-09-21T08:34:22;5.17;;;4.60;;
3563;SDS011;1796;52.388;13.096;2022-09-21T08:36:50;9.57;;;4.80;;
3563;SDS011;1796;52.388;13.096;2022-09-21T08:39:18;8.13;;;5.40;;
3563;SDS011;1796;52.388;13.096;2022-09-21T08:41:51;7.60;;;4.87;;
3563;SDS011;1796;52.388;13.096;2022-09-21T08:44:31;8.17;;;5.07;;
3563;SDS011;1796;52.388;13.096;2022-09-21T08:47:05;9.80;;;4.13;;
3563;SDS011;1796;52.388;13.096;2022-09-21T08:49:39;9.80;;;5.30;;
3563;SDS011;1796;52.388;13.096;2022-09-21T08:52:10;6.67;;;5.10;;
3563;SDS011;1796;52.388;13.096;2022-09-21T08:54:42;19.17;;;4.90;;
3563;SDS011;1796;52.388;13.096;2022-09-21T08:57:12;4.00;;;3.70;;
3563;SDS011;1796;52.388;13.096;2022-09-21T08:59:40;7.80;;;4.50;;
3563;SDS011;1796;52.388;13.096;2022-09-21T09:02:19;4.33;;;3.87;;
3563;SDS011;1796;52.388;13.096;2022-09-21T09:04:57;4.17;;;3.77;;
3563;SDS011;1796;52.388;13.096;2022-09-21T09:07:43;5.53;;;3.60;;
3563;SDS011;1796;52.388;13.096;2022-09-21T09:10:31;5.07;;;3.57;;
3563;SDS011;1796;52.388;13.096;2022-09-21T09:13:04;3.00;;;2.70;;
3563;SDS011;1796;52.388;13.096;2022-09-21T09:15:46;4.20;;;2.80;;
3563;SDS011;1796;52.388;13.096;2022-09-21T09:18:22;5.83;;;3.10;;
3563;SDS011;1796;52.388;13.096;2022-09-21T09:20:56;7.60;;;3.00;;
3563;SDS011;1796;52.388;13.096;2022-09-21T09:23:26;5.90;;;2.97;;
3563;SDS011;1796;52.388;13.096;2022-09-21T09:26:00;3.83;;;3.17;;
3563;SDS011;1796;52.388;13.096;2022-09-21T09:28:33;3.20;;;3.00;;
3563;SDS011;1796;52.388;13.096;2022-09-21T09:31:04;5.30;;;2.87;;
3563;SDS011;1796;52.388;13.096;2022-09-21T09:33:42;4.90;;;3.10;;
3563;SDS011;1796;52.388;13.096;2022-09-21T09:36:15;5.20;;;3.10;;
3563;SDS011;1796;52.388;13.096;2022-09-21T09:38:43;9.50;;;2.83;;
3563;SDS011;1796;52.388;13.096;2022-09-21T09:44:25;2.10;;;2.00;;
3563;SDS011;1796;52.388;13.096;2022-09-21T09:47:06;2.50;;;2.33;;
3563;SDS011;1796;52.388;13.096;2022-09-21T09:49:51;4.03;;;1.90;;
3563;SDS011;1796;52.388;13.096;2022-09-21T09:52:24;2.30;;;1.90;;
3563;SDS011;1796;52.388;13.096;2022-09-21T09:54:51;2.63;;;1.97;;
3563;SDS011;1796;52.388;13.096;2022-09-21T09:57:23;10.40;;;2.20;;
3563;SDS011;1796;52.388;13.096;2022-09-21T09:59:54;3.03;;;1.93;;
3563;SDS011;1796;52.388;13.096;2022-09-21T10:02:25;2.50;;;2.30;;
3563;SDS011;1796;52.388;13.096;2022-09-21T10:04:54;2.10;;;2.00;;
3563;SDS011;1796;52.388;13.096;2022-09-21T10:07:37;2.20;;;2.00;;
3563;SDS011;1796;52.388;13.096;2022-09-21T10:10:21;3.10;;;2.80;;
3563;SDS011;1796;52.388;13.096;2022-09-21T10:12:51;2.93;;;2.23;;
3563;SDS011;1796;52.388;13.096;2022-09-21T10:15:18;2.60;;;2.40;;
3563;SDS011;1796;52.388;13.096;2022-09-21T10:17:55;2.10;;;2.00;;
3563;SDS011;1796;52.388;13.096;2022-09-21T10:20:24;9.13;;;2.70;;
3563;SDS011;1796;52.388;13.096;2022-09-21T10:22:52;2.77;;;2.57;;
3563;SDS011;1796;52.388;13.096;2022-09-21T10:25:21;2.17;;;1.97;;
3563;SDS011;1796;52.388;13.096;2022-09-21T10:27:48;3.07;;;2.13;;
3563;SDS011;1796;52.388;13.096;2022-09-21T10:30:30;1.60;;;1.60;;
3563;SDS011;1796;52.388;13.096;2022-09-21T10:32:59;3.67;;;1.77;;
3563;SDS011;1796;52.388;13.096;2022-09-21T10:35:26;3.10;;;1.70;;
3563;SDS011;1796;52.388;13.096;2022-09-21T10:38:07;5.40;;;1.50;;
3563;SDS011;1796;52.388;13.096;2022-09-21T10:40:35;2.70;;;1.57;;
3563;SDS011;1796;52.388;13.096;2022-09-21T10:43:05;4.80;;;1.80;;
3563;SDS011;1796;52.388;13.096;2022-09-21T10:45:50;1.77;;;1.77;;
3563;SDS011;1796;52.388;13.096;2022-09-21T10:48:20;1.90;;;1.80;;
3563;SDS011;1796;52.388;13.096;2022-09-21T10:50:49;2.17;;;1.90;;
3563;SDS011;1796;52.388;13.096;2022-09-21T10:53:18;2.17;;;1.97;;
3563;SDS011;1796;52.388;13.096;2022-09-21T10:55:54;2.80;;;1.80;;
3563;SDS011;1796;52.388;13.096;2022-09-21T10:58:26;6.43;;;2.50;;
3563;SDS011;1796;52.388;13.096;2022-09-21T11:00:55;3.00;;;2.80;;
3563;SDS011;1796;52.388;13.096;2022-09-21T11:03:41;2.70;;;1.60;;
3563;SDS011;1796;52.388;13.096;2022-09-21T11:06:14;5.20;;;1.83;;
3563;SDS011;1796;52.388;13.096;2022-09-21T11:08:45;2.00;;;1.80;;
3563;SDS011;1796;52.388;13.096;2022-09-21T11:11:22;2.83;;;1.40;;
3563;SDS011;1796;52.388;13.096;2022-09-21T11:13:59;2.40;;;1.70;;
3563;SDS011;1796;52.388;13.096;2022-09-21T11:16:36;1.83;;;1.20;;
3563;SDS011;1796;52.388;13.096;2022-09-21T11:19:09;6.63;;;1.80;;
3563;SDS011;1796;52.388;13.096;2022-09-21T11:21:44;4.80;;;1.70;;
3563;SDS011;1796;52.388;13.096;2022-09-21T11:24:19;1.30;;;1.17;;
3563;SDS011;1796;52.388;13.096;2022-09-21T11:26:52;4.33;;;1.33;;
3563;SDS011;1796;52.388;13.096;2022-09-21T11:29:30;1.30;;;1.30;;
3563;SDS011;1796;52.388;13.096;2022-09-21T11:32:13;1.53;;;1.43;;
3563;SDS011;1796;52.388;13.096;2022-09-21T11:35:01;1.47;;;1.23;;
3563;SDS011;1796;52.388;13.096;2022-09-21T11:37:48;0.97;;;0.97;;
3563;SDS011;1796;52.388;13.096;2022-09-21T11:40:25;1.23;;;1.20;;
3563;SDS011;1796;52.388;13.096;2022-09-21T11:43:13;1.00;;;1.00;;
3563;SDS011;1796;52.388;13.096;2022-09-21T11:45:54;1.10;;;1.00;;
3563;SDS011;1796;52.388;13.096;2022-09-21T11:48:40;3.60;;;1.33;;
3563;SDS011;1796;52.388;13.096;2022-09-21T11:51:21;1.20;;;1.20;;
3563;SDS011;1796;52.388;13.096;2022-09-21T11:54:08;2.30;;;1.33;;
3563;SDS011;1796;52.388;13.096;2022-09-21T11:57:01;0.93;;;0.93;;
3563;SDS011;1796;52.388;13.096;2022-09-21T11:59:43;1.40;;;1.30;;
3563;SDS011;1796;52.388;13.096;2022-09-21T12:02:31;1.30;;;1.20;;
3563;SDS011;1796;52.388;13.096;2022-09-21T12:05:16;1.17;;;0.90;;
3563;SDS011;1796;52.388;13.096;2022-09-21T12:07:55;2.63;;;1.30;;
3563;SDS011;1796;52.388;13.096;2022-09-21T12:10:37;2.90;;;1.30;;
3563;SDS011;1796;52.388;13.096;2022-09-21T12:13:07;0.93;;;0.93;;
3563;SDS011;1796;52.388;13.096;2022-09-21T12:15:42;0.90;;;0.90;;
3563;SDS011;1796;52.388;13.096;2022-09-21T12:18:17;1.60;;;1.50;;
3563;SDS011;1796;52.388;13.096;2022-09-21T12:20:53;2.40;;;1.00;;
3563;SDS011;1796;52.388;13.096;2022-09-21T12:23:27;0.90;;;0.90;;
3563;SDS011;1796;52.388;13.096;2022-09-21T12:26:01;1.00;;;0.87;;
3563;SDS011;1796;52.388;13.096;2022-09-21T12:28:33;1.23;;;0.80;;
3563;SDS011;1796;52.388;13.096;2022-09-21T12:31:07;1.90;;;1.00;;
3563;SDS011;1796;52.388;13.096;2022-09-21T12:33:39;4.93;;;1.17;;
3563;SDS011;1796;52.388;13.096;2022-09-21T12:36:11;0.90;;;0.90;;
3563;SDS011;1796;52.388;13.096;2022-09-21T12:38:43;2.43;;;0.90;;
3563;SDS011;1796;52.388;13.096;2022-09-21T12:41:16;2.10;;;1.03;;
3563;SDS011;1796;52.388;13.096;2022-09-21T12:43:47;0.70;;;0.70;;
3563;SDS011;1796;52.388;13.096;2022-09-21T12:46:17;0.80;;;0.80;;
3563;SDS011;1796;52.388;13.096;2022-09-21T12:48:48;1.80;;;1.00;;
3563;SDS011;1796;52.388;13.096;2022-09-21T12:51:16;1.00;;;1.00;;
3563;SDS011;1796;52.388;13.096;2022-09-21T12:53:48;0.80;;;0.80;;
3563;SDS011;1796;52.388;13.096;2022-09-21T12:56:19;0.90;;;0.90;;
3563;SDS011;1796;52.388;13.096;2022-09-21T12:59:02;1.10;;;1.10;;
3563;SDS011;1796;52.388;13.096;2022-09-21T13:01:36;2.25;;;0.95;;
3563;SDS011;1796;52.388;13.096;2022-09-21T13:04:11;0.93;;;0.93;;
3563;SDS011;1796;52.388;13.096;2022-09-21T13:07:06;1.43;;;0.70;;
3563;SDS011;1796;52.388;13.096;2022-09-21T13:10:06;0.63;;;0.63;;
3563;SDS011;1796;52.388;13.096;2022-09-21T13:12:40;1.00;;;0.83;;
3563;SDS011;1796;52.388;13.096;2022-09-21T13:15:12;0.90;;;0.90;;
3563;SDS011;1796;52.388;13.096;2022-09-21T13:17:46;6.63;;;1.00;;
3563;SDS011;1796;52.388;13.096;2022-09-21T13:20:26;0.83;;;0.83;;
3563;SDS011;1796;52.388;13.096;2022-09-21T13:22:59;0.70;;;0.70;;
3563;SDS011;1796;52.388;13.096;2022-09-21T13:25:27;1.00;;;0.90;;
3563;SDS011;1796;52.388;13.096;2022-09-21T13:28:04;1.13;;;1.00;;
3563;SDS011;1796;52.388;13.096;2022-09-21T13:30:44;0.67;;;0.67;;
3563;SDS011;1796;52.388;13.096;2022-09-21T13:33:31;0.80;;;0.80;;
3563;SDS011;1796;52.388;13.096;2022-09-21T13:36:08;0.73;;;0.73;;
3563;SDS011;1796;52.388;13.096;2022-09-21T13:39:03;1.10;;;1.00;;
3563;SDS011;1796;52.388;13.096;2022-09-21T13:41:39;1.13;;;1.13;;
3563;SDS011;1796;52.388;13.096;2022-09-21T13:44:17;0.80;;;0.80;;
3563;SDS011;1796;52.388;13.096;2022-09-21T13:46:59;3.40;;;1.00;;
3563;SDS011;1796;52.388;13.096;2022-09-21T13:49:31;0.97;;;0.97;;
3563;SDS011;1796;52.388;13.096;2022-09-21T13:52:06;1.00;;;0.90;;
3563;SDS011;1796;52.388;13.096;2022-09-21T13:54:52;1.50;;;1.10;;
3563;SDS011;1796;52.388;13.096;2022-09-21T13:57:23;0.83;;;0.83;;
3563;SDS011;1796;52.388;13.096;2022-09-21T14:02:55;1.10;;;1.10;;
3563;SDS011;1796;52.388;13.096;2022-09-21T14:05:29;0.83;;;0.83;;
3563;SDS011;1796;52.388;13.096;2022-09-21T14:08:01;16.10;;;1.00;;
3563;SDS011;1796;52.388;13.096;2022-09-21T14:10:31;1.13;;;0.80;;
3563;SDS011;1796;52.388;13.096;2022-09-21T14:13:00;1.00;;;1.00;;
3563;SDS011;1796;52.388;13.096;2022-09-21T14:15:33;1.90;;;1.00;;
3563;SDS011;1796;52.388;13.096;2022-09-21T14:18:15;4.53;;;0.77;;
3563;SDS011;1796;52.388;13.096;2022-09-21T14:23:34;0.83;;;0.60;;
3563;SDS011;1796;52.388;13.096;2022-09-21T14:26:03;1.23;;;0.87;;
3563;SDS011;1796;52.388;13.096;2022-09-21T14:28:47;0.80;;;0.80;;
3563;SDS011;1796;52.388;13.096;2022-09-21T14:31:18;1.17;;;1.07;;
3563;SDS011;1796;52.388;13.096;2022-09-21T14:33:50;1.70;;;1.20;;
3563;SDS011;1796;52.388;13.096;2022-09-21T14:36:20;0.87;;;0.80;;
3563;SDS011;1796;52.388;13.096;2022-09-21T14:38:51;0.70;;;0.70;;
3563;SDS011;1796;52.388;13.096;2022-09-21T14:41:22;1.43;;;0.80;;
3563;SDS011;1796;52.388;13.096;2022-09-21T14:43:51;0.90;;;0.87;;
3563;SDS011;1796;52.388;13.096;2022-09-21T14:46:29;1.33;;;0.80;;
3563;SDS011;1796;52.388;13.096;2022-09-21T14:49:15;0.83;;;0.83;;
3563;SDS011;1796;52.388;13.096;2022-09-21T14:51:52;0.60;;;0.60;;
3563;SDS011;1796;52.388;13.096;2022-09-21T14:54:33;1.40;;;0.80;;
3563;SDS011;1796;52.388;13.096;2022-09-21T15:00:05;2.10;;;0.70;;
3563;SDS011;1796;52.388;13.096;2022-09-21T15:02:45;0.70;;;0.70;;
3563;SDS011;1796;52.388;13.096;2022-09-21T15:05:17;4.47;;;0.70;;
3563;SDS011;1796;52.388;13.096;2022-09-21T15:07:54;0.60;;;0.60;;
3563;SDS011;1796;52.388;13.096;2022-09-21T15:10:55;0.80;;;0.77;;
3563;SDS011;1796;52.388;13.096;2022-09-21T15:13:40;2.97;;;0.70;;
3563;SDS011;1796;52.388;13.096;2022-09-21T15:16:16;1.53;;;0.70;;
3563;SDS011;1796;52.388;13.096;2022-09-21T15:19:13;1.73;;;1.00;;
3563;SDS011;1796;52.388;13.096;2022-09-21T15:21:46;0.90;;;0.70;;
3563;SDS011;1796;52.388;13.096;2022-09-21T15:24:18;1.20;;;1.00;;
3563;SDS011;1796;52.388;13.096;2022-09-21T15:26:48;3.57;;;0.90;;
3563;SDS011;1796;52.388;13.096;2022-09-21T15:29:20;3.40;;;0.80;;
3563;SDS011;1796;52.388;13.096;2022-09-21T15:31:50;1.37;;;0.90;;
3563;SDS011;1796;52.388;13.096;2022-09-21T15:34:20;1.00;;;0.83;;
3563;SDS011;1796;52.388;13.096;2022-09-21T15:36:47;0.77;;;0.77;;
3563;SDS011;1796;52.388;13.096;2022-09-21T15:39:23;0.70;;;0.70;;
3563;SDS011;1796;52.388;13.096;2022-09-21T15:44:47;0.80;;;0.80;;
3563;SDS011;1796;52.388;13.096;2022-09-21T15:47:16;1.60;;;1.10;;
3563;SDS011;1796;52.388;13.096;2022-09-21T15:49:46;0.80;;;0.80;;